createdAt,value
2018-01-11T00:01:04.777Z,1.47
2018-01-11T00:03:31.625Z,1.30
2018-01-11T00:05:58.678Z,0.90
2018-01-11T00:08:25.691Z,1.50
2018-01-11T00:10:53.191Z,1.67
2018-01-11T00:13:20.247Z,1.10
2018-01-11T00:15:47.298Z,1.17
2018-01-11T00:18:14.863Z,1.10
2018-01-11T00:20:41.710Z,1.27
2018-01-11T00:23:08.462Z,1.40
2018-01-11T00:25:36.534Z,1.10
2018-01-11T00:28:03.383Z,1.20
2018-01-11T00:30:30.199Z,2.00
2018-01-11T00:32:57.232Z,1.20
2018-01-11T00:35:25.259Z,1.60
2018-01-11T00:37:53.544Z,1.80
2018-01-11T00:40:20.747Z,1.70
2018-01-11T00:42:48.976Z,1.90
2018-01-11T00:45:17.039Z,1.17
2018-01-11T00:47:44.492Z,1.30
2018-01-11T00:50:13.811Z,1.53
2018-01-11T00:52:41.592Z,1.10
2018-01-11T00:55:09.260Z,1.70
2018-01-11T00:57:37.553Z,1.50
2018-01-11T01:00:04.694Z,1.70
2018-01-11T01:02:31.546Z,1.80
2018-01-11T01:04:58.597Z,1.80
2018-01-11T01:07:25.813Z,1.70
2018-01-11T01:09:53.465Z,2.43
2018-01-11T01:12:20.881Z,1.63
2018-01-11T01:14:49.367Z,1.80
2018-01-11T01:17:16.223Z,1.90
2018-01-11T01:19:43.580Z,1.57
2018-01-11T01:22:11.834Z,2.00
2018-01-11T01:24:40.683Z,1.00
2018-01-11T01:27:07.827Z,1.77
2018-01-11T01:29:36.295Z,1.30
2018-01-11T01:32:06.014Z,1.50
2018-01-11T01:34:34.195Z,1.20
2018-01-11T01:37:01.261Z,0.87
2018-01-11T01:39:29.623Z,1.03
2018-01-11T01:41:57.804Z,1.00
2018-01-11T01:44:25.058Z,1.10
2018-01-11T01:46:52.381Z,1.30
2018-01-11T01:49:20.102Z,1.60
2018-01-11T01:51:46.836Z,1.27
2018-01-11T01:54:14.705Z,1.27
2018-01-11T01:56:41.452Z,0.90
2018-01-11T01:59:09.326Z,1.20
2018-01-11T02:01:37.204Z,0.80
2018-01-11T02:04:03.943Z,0.90
2018-01-11T02:06:31.407Z,1.03
2018-01-11T02:08:58.665Z,0.87
2018-01-11T02:11:25.407Z,0.80
2018-01-11T02:13:52.567Z,0.80
2018-01-11T02:16:19.711Z,0.90
2018-01-11T02:18:47.593Z,1.00
2018-01-11T02:21:15.055Z,0.80
2018-01-11T02:23:42.112Z,0.70
2018-01-11T02:26:10.900Z,0.77
2018-01-11T02:28:38.465Z,0.80
2018-01-11T02:31:07.207Z,1.40
2018-01-11T02:33:35.333Z,1.50
2018-01-11T02:36:02.913Z,1.60
2018-01-11T02:38:30.263Z,1.60
2018-01-11T02:40:57.212Z,1.13
2018-01-11T02:43:28.872Z,1.10
2018-01-11T02:45:58.617Z,1.20
2018-01-11T02:48:26.658Z,1.23
2018-01-11T02:50:53.508Z,1.23
2018-01-11T02:53:21.084Z,1.00
2018-01-11T02:55:49.251Z,0.63
2018-01-11T02:58:16.104Z,0.70
2018-01-11T03:00:44.075Z,1.00
2018-01-11T03:03:11.231Z,0.80
2018-01-11T03:05:38.388Z,0.70
2018-01-11T03:08:05.243Z,1.17
2018-01-11T03:10:31.983Z,1.13
2018-01-11T03:12:59.340Z,1.30
2018-01-11T03:15:26.086Z,1.03
2018-01-11T03:17:53.269Z,1.40
2018-01-11T03:20:23.076Z,0.93
2018-01-11T03:22:51.137Z,1.60
2018-01-11T03:25:17.972Z,1.60
2018-01-11T03:27:45.853Z,1.53
2018-01-11T03:30:13.933Z,1.90
2018-01-11T03:32:40.990Z,1.67
2018-01-11T03:35:08.355Z,1.97
2018-01-11T03:37:35.087Z,2.60
2018-01-11T03:40:03.578Z,2.77
2018-01-11T03:42:30.748Z,2.20
2018-01-11T03:44:57.916Z,2.30
2018-01-11T03:47:24.958Z,2.70
2018-01-11T03:49:54.381Z,2.30
2018-01-11T03:52:21.402Z,2.63
2018-01-11T03:54:49.376Z,1.90
2018-01-11T03:57:17.354Z,2.20
2018-01-11T03:59:45.432Z,2.53
2018-01-11T04:02:12.992Z,2.43
2018-01-11T04:04:39.844Z,2.27
2018-01-11T04:07:07.508Z,2.63
2018-01-11T04:09:35.793Z,2.43
2018-01-11T04:12:03.459Z,2.53
2018-01-11T04:14:31.124Z,2.10
2018-01-11T04:16:58.282Z,1.97
2018-01-11T04:19:25.541Z,1.93
2018-01-11T04:21:52.386Z,2.00
2018-01-11T04:24:20.225Z,2.10
2018-01-11T04:26:47.927Z,2.60
2018-01-11T04:29:15.083Z,2.47
2018-01-11T04:31:42.141Z,2.13
2018-01-11T04:34:09.494Z,2.00
2018-01-11T04:36:36.860Z,2.00
2018-01-11T04:39:03.658Z,1.97
2018-01-11T04:41:30.451Z,1.93
2018-01-11T04:43:58.024Z,2.10
2018-01-11T04:46:25.272Z,2.20
2018-01-11T04:48:52.941Z,1.97
2018-01-11T04:51:19.890Z,1.67
2018-01-11T04:53:47.148Z,1.73
2018-01-11T04:56:13.767Z,2.10
2018-01-11T04:58:42.178Z,1.73
2018-01-11T05:01:09.126Z,2.00
2018-01-11T05:03:36.492Z,1.80
2018-01-11T05:06:03.954Z,1.50
2018-01-11T05:08:30.607Z,1.90
2018-01-11T05:10:57.443Z,2.20
2018-01-11T05:13:24.805Z,1.90
2018-01-11T05:15:51.651Z,2.10
2018-01-11T05:18:18.399Z,2.20
2018-01-11T05:20:46.143Z,1.93
2018-01-11T05:23:13.732Z,1.97
2018-01-11T05:25:40.785Z,1.67
2018-01-11T05:28:08.864Z,1.43
2018-01-11T05:30:36.089Z,1.83
2018-01-11T05:33:03.583Z,1.40
2018-01-11T05:35:30.847Z,1.80
2018-01-11T05:37:57.893Z,1.53
2018-01-11T05:40:24.616Z,1.37
2018-01-11T05:42:52.515Z,1.47
2018-01-11T05:45:19.569Z,1.30
2018-01-11T05:47:46.312Z,0.97
2018-01-11T05:50:12.969Z,1.40
2018-01-11T05:52:40.725Z,1.43
2018-01-11T05:55:07.993Z,1.80
2018-01-11T05:57:35.345Z,1.60
2018-01-11T06:00:02.203Z,1.30
2018-01-11T06:02:29.354Z,1.50
2018-01-11T06:04:56.021Z,1.17
2018-01-11T06:07:22.948Z,1.40
2018-01-11T06:09:50.201Z,1.20
2018-01-11T06:12:16.908Z,3.10
2018-01-11T06:14:44.716Z,1.10
2018-01-11T06:17:11.873Z,0.90
2018-01-11T06:19:40.538Z,0.80
2018-01-11T06:22:11.155Z,2.00
2018-01-11T06:24:43.877Z,1.20
2018-01-11T06:27:16.820Z,1.33
2018-01-11T06:29:46.504Z,2.30
2018-01-11T06:32:16.165Z,0.90
2018-01-11T06:34:44.271Z,0.87
2018-01-11T06:37:13.166Z,1.20
2018-01-11T06:39:42.553Z,1.40
2018-01-11T06:42:12.271Z,4.80
2018-01-11T06:44:42.892Z,2.20
2018-01-11T06:47:13.599Z,11.10
2018-01-11T06:49:44.863Z,1.00
2018-01-11T06:52:16.430Z,1.40
2018-01-11T06:54:47.300Z,0.93
2018-01-11T06:57:19.859Z,1.10
2018-01-11T06:59:53.601Z,1.40
2018-01-11T07:02:26.063Z,1.10
2018-01-11T07:04:56.725Z,0.97
2018-01-11T07:07:26.793Z,1.10
2018-01-11T07:09:56.775Z,1.10
2018-01-11T07:12:23.898Z,0.90
2018-01-11T07:14:51.054Z,0.80
2018-01-11T07:17:17.909Z,1.30
2018-01-11T07:19:44.955Z,1.60
2018-01-11T07:22:12.212Z,1.10
2018-01-11T07:24:39.473Z,0.90
2018-01-11T07:27:08.573Z,0.80
2018-01-11T07:29:35.726Z,0.70
2018-01-11T07:32:02.777Z,1.20
2018-01-11T07:34:33.049Z,1.30
2018-01-11T07:37:03.331Z,1.20
2018-01-11T07:39:30.671Z,1.27
2018-01-11T07:41:58.256Z,1.00
2018-01-11T07:44:25.616Z,0.90
2018-01-11T07:46:52.467Z,0.97
2018-01-11T07:49:20.543Z,1.20
2018-01-11T07:51:47.599Z,1.00
2018-01-11T07:54:14.754Z,1.50
2018-01-11T07:56:41.701Z,1.40
2018-01-11T07:59:08.999Z,2.03
2018-01-11T08:01:35.909Z,1.93
2018-01-11T08:04:02.862Z,1.53
2018-01-11T08:06:30.893Z,1.50
2018-01-11T08:08:58.711Z,2.13
2018-01-11T08:11:25.575Z,2.00
2018-01-11T08:13:52.284Z,1.83
2018-01-11T08:16:20.185Z,2.00
2018-01-11T08:18:47.025Z,2.50
2018-01-11T08:21:14.281Z,1.77
2018-01-11T08:23:41.437Z,1.77
2018-01-11T08:26:08.185Z,2.40
2018-01-11T08:28:36.274Z,2.00
2018-01-11T08:31:03.828Z,1.73
2018-01-11T08:33:31.498Z,2.30
2018-01-11T08:35:58.237Z,1.90
2018-01-11T08:38:25.291Z,2.07
2018-01-11T08:40:52.039Z,2.10
2018-01-11T08:43:19.324Z,2.33
2018-01-11T08:45:48.088Z,1.60
2018-01-11T08:48:16.370Z,1.60
2018-01-11T08:50:43.472Z,1.60
2018-01-11T08:53:10.581Z,2.00
2018-01-11T08:55:37.838Z,1.90
2018-01-11T08:58:04.889Z,1.50
2018-01-11T09:00:31.740Z,1.70
2018-01-11T09:02:59.508Z,1.73
2018-01-11T09:05:27.292Z,2.07
2018-01-11T09:07:54.538Z,1.63
2018-01-11T09:10:21.292Z,1.60
2018-01-11T09:12:48.136Z,1.70
2018-01-11T09:15:15.902Z,1.80
2018-01-11T09:17:43.663Z,1.87
2018-01-11T09:20:10.523Z,1.67
2018-01-11T09:22:37.283Z,1.77
2018-01-11T09:25:05.682Z,2.17
2018-01-11T09:27:32.394Z,2.40
2018-01-11T09:29:59.116Z,2.00
2018-01-11T09:32:27.024Z,1.70
2018-01-11T09:34:53.866Z,2.00
2018-01-11T09:37:20.625Z,2.13
2018-01-11T09:39:48.589Z,2.17
2018-01-11T09:42:15.829Z,1.70
2018-01-11T09:44:42.666Z,2.17
2018-01-11T09:47:11.688Z,2.40
2018-01-11T09:49:38.640Z,2.60
2018-01-11T09:52:06.409Z,2.37
2018-01-11T09:54:34.080Z,2.43
2018-01-11T09:57:01.436Z,2.47
2018-01-11T09:59:28.284Z,2.50
2018-01-11T10:01:56.260Z,1.93
2018-01-11T10:04:23.722Z,1.70
2018-01-11T10:06:50.881Z,2.03
2018-01-11T10:09:19.056Z,2.23
2018-01-11T10:11:46.819Z,2.00
2018-01-11T10:14:14.901Z,2.10
2018-01-11T10:16:42.977Z,1.53
2018-01-11T10:19:10.248Z,1.37
2018-01-11T10:21:37.288Z,1.80
2018-01-11T10:24:04.140Z,1.60
2018-01-11T10:26:31.191Z,1.47
2018-01-11T10:28:58.141Z,1.90
2018-01-11T10:31:32.050Z,1.60
2018-01-11T10:33:59.516Z,1.63
2018-01-11T10:36:26.261Z,1.80
2018-01-11T10:38:52.903Z,1.47
2018-01-11T10:41:20.573Z,1.67
2018-01-11T10:43:47.420Z,1.90
2018-01-11T10:46:14.169Z,1.40
2018-01-11T10:48:40.910Z,1.00
2018-01-11T10:51:07.964Z,1.30
2018-01-11T10:53:34.611Z,2.00
2018-01-11T10:56:01.457Z,1.30
2018-01-11T10:58:28.208Z,1.63
2018-01-11T11:01:01.195Z,1.50
2018-01-11T11:03:28.353Z,1.90
2018-01-11T11:05:55.376Z,1.40
2018-01-11T11:08:22.969Z,1.60
2018-01-11T11:10:50.173Z,1.53
2018-01-11T11:13:16.870Z,1.80
2018-01-11T11:15:44.743Z,2.17
2018-01-11T11:18:11.793Z,1.50
2018-01-11T11:20:38.539Z,1.63
2018-01-11T11:23:05.285Z,1.77
2018-01-11T11:25:32.952Z,2.30
2018-01-11T11:28:00.722Z,1.40
2018-01-11T11:30:27.574Z,2.33
2018-01-11T11:32:54.317Z,2.50
2018-01-11T11:35:21.064Z,2.13
2018-01-11T11:37:48.730Z,2.07
2018-01-11T11:40:15.784Z,2.20
2018-01-11T11:42:42.632Z,2.23
2018-01-11T11:45:09.484Z,1.83
2018-01-11T11:47:36.336Z,1.50
2018-01-11T11:50:04.627Z,2.10
2018-01-11T11:52:31.471Z,1.33
2018-01-11T11:54:58.304Z,1.60
2018-01-11T11:57:25.060Z,2.60
2018-01-11T11:59:52.111Z,2.40
2018-01-11T12:02:19.173Z,2.20
2018-01-11T12:04:46.930Z,1.57
2018-01-11T12:07:13.677Z,1.77
2018-01-11T12:09:40.427Z,1.97
2018-01-11T12:12:07.275Z,1.70
2018-01-11T12:14:34.839Z,1.60
2018-01-11T12:17:01.583Z,1.50
2018-01-11T12:19:28.325Z,1.93
2018-01-11T12:21:55.184Z,1.30
2018-01-11T12:24:22.232Z,1.40
2018-01-11T12:26:49.091Z,1.40
2018-01-11T12:29:15.933Z,1.40
2018-01-11T12:31:43.603Z,2.10
2018-01-11T12:34:10.341Z,1.60
2018-01-11T12:36:37.297Z,1.43
2018-01-11T12:39:04.251Z,2.33
2018-01-11T12:41:31.509Z,1.37
2018-01-11T12:43:58.463Z,1.40
2018-01-11T12:46:26.437Z,1.80
2018-01-11T12:48:53.278Z,2.33
2018-01-11T12:51:20.329Z,2.03
2018-01-11T12:53:47.282Z,2.20
2018-01-11T12:56:16.077Z,2.27
2018-01-11T12:58:43.227Z,1.20
2018-01-11T13:01:10.997Z,1.70
2018-01-11T13:03:38.260Z,2.00
2018-01-11T13:06:05.831Z,2.57
2018-01-11T13:08:32.778Z,1.93
2018-01-11T13:10:59.624Z,2.17
2018-01-11T13:13:26.371Z,1.50
2018-01-11T13:15:53.624Z,1.97
2018-01-11T13:18:21.195Z,2.77
2018-01-11T13:20:48.045Z,1.27
2018-01-11T13:23:14.784Z,2.27
2018-01-11T13:25:41.635Z,1.50
2018-01-11T13:28:08.381Z,2.10
2018-01-11T13:30:35.339Z,1.10
2018-01-11T13:33:02.087Z,2.10
2018-01-11T13:35:29.338Z,2.33
2018-01-11T13:37:56.801Z,2.40
2018-01-11T13:40:24.365Z,2.17
2018-01-11T13:42:51.317Z,2.53
2018-01-11T13:45:18.163Z,2.77
2018-01-11T13:47:45.010Z,2.47
2018-01-11T13:50:13.273Z,2.43
2018-01-11T13:52:40.245Z,3.57
2018-01-11T13:55:07.097Z,2.77
2018-01-11T13:57:34.155Z,3.30
2018-01-11T14:00:01.204Z,3.70
2018-01-11T14:02:28.046Z,2.40
2018-01-11T14:04:54.900Z,2.30
2018-01-11T14:07:21.856Z,2.37
2018-01-11T14:09:48.762Z,2.90
2018-01-11T14:12:16.058Z,2.03
2018-01-11T14:14:43.008Z,2.07
2018-01-11T14:17:09.754Z,2.37
2018-01-11T14:19:36.507Z,3.60
2018-01-11T14:22:03.278Z,3.10
2018-01-11T14:24:30.094Z,2.90
2018-01-11T14:26:56.842Z,2.70
2018-01-11T14:29:23.692Z,2.13
2018-01-11T14:31:50.847Z,1.80
2018-01-11T14:34:17.594Z,1.73
2018-01-11T14:36:44.434Z,3.10
2018-01-11T14:39:11.288Z,3.47
2018-01-11T14:41:38.151Z,3.00
2018-01-11T14:44:05.393Z,3.10
2018-01-11T14:46:32.349Z,4.30
2018-01-11T14:48:59.197Z,2.87
2018-01-11T14:51:26.049Z,2.67
2018-01-11T14:53:52.890Z,3.00
2018-01-11T14:56:19.743Z,3.30
2018-01-11T14:58:46.589Z,3.90
2018-01-11T15:01:13.442Z,3.93
2018-01-11T15:03:40.597Z,3.40
2018-01-11T15:06:07.441Z,2.83
2018-01-11T15:08:34.903Z,3.93
2018-01-11T15:11:01.957Z,3.10
2018-01-11T15:13:28.707Z,2.73
2018-01-11T15:15:55.932Z,3.47
2018-01-11T15:18:22.914Z,3.37
2018-01-11T15:20:49.767Z,2.00
2018-01-11T15:23:16.916Z,2.40
2018-01-11T15:25:44.279Z,3.17
2018-01-11T15:28:11.644Z,2.10
2018-01-11T15:30:38.603Z,2.97
2018-01-11T15:33:05.455Z,2.40
2018-01-11T15:35:32.117Z,2.77
2018-01-11T15:38:02.427Z,1.87
2018-01-11T15:40:29.670Z,1.57
2018-01-11T15:42:56.722Z,2.40
2018-01-11T15:45:23.779Z,1.57
2018-01-11T15:47:50.532Z,2.70
2018-01-11T15:50:18.141Z,2.17
2018-01-11T15:52:45.038Z,3.17
2018-01-11T15:55:11.988Z,3.40
2018-01-11T15:57:38.940Z,2.93
2018-01-11T16:00:05.990Z,3.67
2018-01-11T16:02:32.754Z,3.33
2018-01-11T16:04:59.591Z,2.90
2018-01-11T16:07:28.575Z,2.73
2018-01-11T16:09:56.355Z,2.80
2018-01-11T16:12:23.346Z,2.30
2018-01-11T16:14:51.891Z,1.60
2018-01-11T16:17:18.638Z,2.30
2018-01-11T16:19:45.486Z,2.70
2018-01-11T16:22:12.437Z,2.07
2018-01-11T16:24:46.248Z,2.13
2018-01-11T16:27:13.195Z,2.27
2018-01-11T16:29:40.146Z,2.30
2018-01-11T16:32:06.895Z,2.20
2018-01-11T16:34:33.642Z,2.40
2018-01-11T16:37:00.525Z,1.53
2018-01-11T16:39:27.234Z,2.10
2018-01-11T16:41:54.903Z,1.23
2018-01-11T16:44:21.955Z,1.67
2018-01-11T16:46:48.701Z,1.23
2018-01-11T16:49:15.446Z,1.10
2018-01-11T16:51:43.424Z,2.00
2018-01-11T16:54:10.373Z,1.30
2018-01-11T16:56:37.229Z,1.43
2018-01-11T16:59:04.174Z,2.07
2018-01-11T17:01:32.456Z,2.17
2018-01-11T17:03:59.201Z,1.60
2018-01-11T17:06:26.051Z,1.63
2018-01-11T17:08:53.002Z,2.40
2018-01-11T17:11:20.260Z,2.10
2018-01-11T17:13:47.827Z,2.30
2018-01-11T17:16:17.192Z,2.43
2018-01-11T17:18:45.614Z,2.27
2018-01-11T17:21:13.385Z,2.33
2018-01-11T17:23:40.337Z,1.80
2018-01-11T17:26:07.081Z,2.37
2018-01-11T17:28:33.927Z,2.10
2018-01-11T17:31:00.780Z,2.23
2018-01-11T17:33:27.525Z,2.80
2018-01-11T17:35:54.272Z,1.70
2018-01-11T17:38:22.142Z,4.43
2018-01-11T17:40:49.296Z,6.07
2018-01-11T17:43:16.252Z,2.77
2018-01-11T17:45:43.833Z,2.60
2018-01-11T17:48:10.973Z,2.07
2018-01-11T17:50:37.820Z,1.90
2018-01-11T17:53:04.673Z,1.83
2018-01-11T17:55:31.617Z,1.70
2018-01-11T17:57:58.471Z,1.93
2018-01-11T18:00:25.829Z,1.40
2018-01-11T18:02:54.222Z,1.17
2018-01-11T18:05:23.251Z,1.70
2018-01-11T18:07:53.023Z,1.50
2018-01-11T18:10:20.081Z,1.67
2018-01-11T18:12:47.031Z,1.73
2018-01-11T18:15:13.880Z,2.10
2018-01-11T18:17:40.624Z,2.80
2018-01-11T18:20:08.184Z,2.03
2018-01-11T18:22:34.938Z,1.70
2018-01-11T18:25:01.657Z,1.60
2018-01-11T18:27:28.738Z,1.60
2018-01-11T18:29:55.467Z,1.53
2018-01-11T18:32:22.231Z,2.50
2018-01-11T18:34:49.078Z,2.93
2018-01-11T18:37:15.815Z,1.70
2018-01-11T18:39:43.084Z,3.30
2018-01-11T18:42:10.851Z,2.57
2018-01-11T18:44:37.699Z,2.87
2018-01-11T18:47:04.653Z,2.10
2018-01-11T18:49:31.585Z,2.37
2018-01-11T18:51:58.460Z,1.90
2018-01-11T18:54:25.312Z,2.30
2018-01-11T18:56:52.532Z,1.93
2018-01-11T18:59:20.112Z,2.37
2018-01-11T19:01:47.179Z,1.80
2018-01-11T19:04:14.124Z,1.70
2018-01-11T19:06:41.358Z,2.47
2018-01-11T19:09:08.236Z,2.30
2018-01-11T19:11:35.078Z,1.90
2018-01-11T19:14:03.263Z,2.20
2018-01-11T19:16:30.311Z,3.07
2018-01-11T19:18:57.962Z,3.00
2018-01-11T19:21:27.388Z,2.20
2018-01-11T19:23:56.880Z,3.40
2018-01-11T19:26:24.280Z,2.93
2018-01-11T19:28:51.514Z,1.80
2018-01-11T19:31:18.773Z,2.73
2018-01-11T19:33:45.517Z,1.87
2018-01-11T19:36:12.578Z,2.57
2018-01-11T19:38:39.316Z,1.73
2018-01-11T19:41:06.068Z,2.00
2018-01-11T19:43:33.018Z,3.03
2018-01-11T19:45:59.760Z,2.50
2018-01-11T19:48:27.812Z,3.73
2018-01-11T19:50:58.011Z,3.17
2018-01-11T19:53:26.448Z,2.80
2018-01-11T19:55:53.502Z,3.63
2018-01-11T19:58:23.352Z,2.10
2018-01-11T20:00:50.781Z,2.83
2018-01-11T20:03:18.407Z,2.80
2018-01-11T20:05:45.818Z,3.33
2018-01-11T20:08:12.865Z,3.60
2018-01-11T20:10:39.710Z,3.73
2018-01-11T20:13:07.470Z,2.73
2018-01-11T20:15:34.448Z,3.83
2018-01-11T20:18:01.256Z,4.03
2018-01-11T20:20:28.227Z,3.93
2018-01-11T20:22:55.898Z,3.73
2018-01-11T20:25:23.053Z,4.10
2018-01-11T20:27:51.536Z,3.23
2018-01-11T20:30:18.517Z,3.40
2018-01-11T20:32:46.283Z,3.10
2018-01-11T20:35:13.511Z,4.60
2018-01-11T20:37:40.879Z,5.03
2018-01-11T20:40:08.747Z,4.97
2018-01-11T20:42:36.621Z,4.87
2018-01-11T20:45:04.493Z,4.67
2018-01-11T20:47:31.238Z,3.63
2018-01-11T20:49:59.166Z,5.53
2018-01-11T20:52:25.969Z,5.10
2018-01-11T20:54:53.717Z,4.80
2018-01-11T20:57:20.681Z,4.97
2018-01-11T20:59:47.951Z,4.90
2018-01-11T21:02:14.675Z,4.40
2018-01-11T21:04:41.934Z,5.43
2018-01-11T21:07:08.689Z,4.20
2018-01-11T21:09:35.431Z,5.20
2018-01-11T21:12:02.795Z,5.60
2018-01-11T21:14:29.749Z,3.70
2018-01-11T21:16:56.900Z,4.00
2018-01-11T21:19:24.367Z,4.80
2018-01-11T21:21:52.543Z,5.70
2018-01-11T21:24:19.287Z,5.20
2018-01-11T21:26:46.141Z,4.50
2018-01-11T21:29:13.892Z,5.50
2018-01-11T21:31:48.162Z,5.90
2018-01-11T21:34:14.975Z,5.93
2018-01-11T21:36:42.130Z,5.60
2018-01-11T21:39:08.874Z,5.90
2018-01-11T21:41:36.032Z,6.03
2018-01-11T21:44:03.048Z,6.77
2018-01-11T21:46:30.238Z,7.00
2018-01-11T21:48:57.086Z,7.90
2018-01-11T21:51:24.048Z,7.17
2018-01-11T21:53:51.192Z,6.60
2018-01-11T21:56:17.940Z,7.47
2018-01-11T21:58:44.893Z,7.03
2018-01-11T22:01:12.902Z,6.27
2018-01-11T22:03:39.814Z,8.37
2018-01-11T22:06:06.563Z,7.10
2018-01-11T22:08:33.514Z,8.47
2018-01-11T22:11:00.360Z,8.20
2018-01-11T22:13:27.383Z,7.57
2018-01-11T22:15:54.876Z,6.70
2018-01-11T22:18:21.829Z,7.80
2018-01-11T22:20:48.678Z,5.03
2018-01-11T22:23:15.528Z,5.90
2018-01-11T22:25:42.478Z,4.33
2018-01-11T22:28:09.324Z,3.40
2018-01-11T22:30:35.996Z,3.40
2018-01-11T22:33:02.928Z,5.60
2018-01-11T22:35:30.003Z,4.87
2018-01-11T22:37:56.813Z,3.70
2018-01-11T22:40:24.897Z,5.00
2018-01-11T22:42:51.648Z,3.97
2018-01-11T22:45:18.346Z,4.60
2018-01-11T22:47:46.159Z,4.03
2018-01-11T22:50:13.068Z,4.77
2018-01-11T22:52:40.780Z,3.17
2018-01-11T22:55:07.738Z,4.40
2018-01-11T22:57:34.577Z,4.80
2018-01-11T23:00:01.461Z,4.93
2018-01-11T23:02:28.888Z,5.30
2018-01-11T23:04:56.046Z,5.57
2018-01-11T23:07:22.724Z,5.27
2018-01-11T23:09:49.746Z,5.60
2018-01-11T23:12:16.499Z,5.03
2018-01-11T23:14:44.166Z,5.60
2018-01-11T23:17:12.744Z,5.00
2018-01-11T23:19:39.599Z,5.00
2018-01-11T23:22:06.662Z,5.17
2018-01-11T23:24:33.697Z,4.60
2018-01-11T23:27:00.464Z,5.23
2018-01-11T23:29:27.200Z,5.20
2018-01-11T23:31:54.115Z,4.43
2018-01-11T23:34:21.604Z,4.67
2018-01-11T23:36:48.764Z,5.13
2018-01-11T23:39:15.817Z,5.40
2018-01-11T23:41:42.562Z,4.93
2018-01-11T23:44:09.324Z,3.73
2018-01-11T23:46:36.263Z,4.00
2018-01-11T23:49:03.210Z,3.60
2018-01-11T23:51:30.055Z,3.87
2018-01-11T23:53:57.041Z,4.90
2018-01-11T23:56:24.066Z,4.90
2018-01-11T23:58:50.806Z,3.93
